Anchorage, AK

11:46 AM AKST on January 16, 2017 (GMT -0900)
Westchester Lagoon | | Change Station
Active Advisory: Winter Weather Advisory

Elev 36 ft 61.21 °N, 149.92 °W | Updated 32 minutes ago

Snow
Snow Freezing Fog
16.4 °F
Feels Like 16 °F
N
0.0
Wind Variable Wind from SE
Gusts 0.0 mph

Today
High -- | Low -- °F
--% Chance of Precip.
Yesterday
High -- | Low -- °F
Precip. -- in
Pressure 28.76 in
Visibility 0.5 miles
Clouds
Windchill 16 °F
Dew Point 14 °F
Humidity 91%
Rainfall 0.00 in
Snow Depth Not available.
9:54 AM 4:25 PM
Waning Gibbous, 78% visible
SPECI PAMR 161957Z 00000KT 1/2SM SN FZFG VV011 M10/M12 A2876 RMK AO2 P0000 T11001117 $
Pressure 28.76 in
Visibility 0.5 miles
Clouds
Windchill 16 °F
Dew Point 14 °F
Humidity 91%
Rainfall 0.00 in
Snow Depth Not available.
9:54 AM 4:25 PM
Waning Gibbous, 78% visible
SPECI PAMR 161957Z 00000KT 1/2SM SN FZFG VV011 M10/M12 A2876 RMK AO2 P0000 T11001117 $

Get Your Daily Forecast Email!

Thanks for signing up!

Be on the lookout for a verification email in your inbox.

You'll start receiving the daily forecast at 8 AM.

×

10-Day Weather Forecast

Almanac

Astronomy

Jan. 16, 2017 Rise Set
Actual Time
Civil Twilight
Nautical Twilight
Astronomical Twilight
Moon
Length of Visible Light
Length of Day
Tomorrow will be .
, % of the Moon is Illuminated

Today's Extremes

State Highs State Lows

Community

WunderPhotos

Upload Photos

1,962,540 photos uploaded!

WunderBlog® & News

Nearby

Air Quality

  Air Quality AQ Index Pollutant
Not available.

Snow Depth

Station Depth Elevation

Earthquake Activity

City Distance Mag. Time & Date
Minimum magnitude displayed is 2.5.

Coastal Water Temperatures

Place Temperature

Stations

Nearby Weather Stations

Station Location Temp. Windchill Dew Point Humidity Wind Precip. Elev Updated Type
                   

Watches & Warnings

Winter Weather Advisory
Issued: 9:01 AM AKST Jan. 16, 2017 – National Weather Service

... Winter Weather Advisory remains in effect until 4 PM akst this
afternoon...

* snow... storm total of 4 to 8 inches with highest values over
east Anchorage and along the mountains.

* Visibility... one half mile or less at times in moderate
snowfall.

* Timing... snowfall will continue into the afternoon...
especially along the corridor from Eagle River to Chugiak.
Snow will begin to taper off by late afternoon.

* Impacts... travel may be difficult. Visibilities will be
limited in moderate to heavy snowfall.

Precautionary/preparedness actions...

A Winter Weather Advisory for snow means that periods of snow
will cause primarily travel difficulties. Be prepared for snow
covered roads and limited visibilities... and use caution while
driving.